Time;durP1;ratioP1;P1;durP2;ratioP2;P2;SDS_P1;SDS_P2;PMS_P1;PMS_P2;Temp;Humidity;BMP_temperature;BMP_pressure;BME280_temperature;BME280_humidity;BME280_pressure;Samples;Min_cycle;Max_cycle;Signal;HPM_P1;HPM_P2
2022/10/19 00:01:07;;;;;;;9.33;8.53;;;15.20;1.00;;;;;;5081460;28;20473;-82
2022/10/19 00:03:36;;;;;;;9.13;8.17;;;15.20;1.90;;;;;;5087765;28;20585;-81
2022/10/19 00:06:13;;;;;;;15.53;9.57;;;15.10;1.00;;;;;;5086948;28;20480;-82
2022/10/19 00:08:42;;;;;;;12.93;9.07;;;15.10;99.90;;;;;;5081866;28;20540;-83
2022/10/19 00:11:11;;;;;;;8.77;7.80;;;15.10;99.90;;;;;;5077657;28;21254;-82
2022/10/19 00:13:40;;;;;;;9.23;8.43;;;15.10;99.90;;;;;;5079563;28;20542;-82
2022/10/19 00:16:10;;;;;;;9.90;8.90;;;15.00;99.90;;;;;;5088636;28;20461;-82
2022/10/19 00:18:39;;;;;;;9.20;8.30;;;15.00;1.00;;;;;;5081923;28;20845;-83
2022/10/19 00:21:09;;;;;;;9.33;8.43;;;14.90;1.00;;;;;;5085454;28;20561;-83
2022/10/19 00:23:38;;;;;;;11.93;8.40;;;14.90;4.80;;;;;;5081311;28;20464;-83
2022/10/19 00:26:07;;;;;;;12.57;9.30;;;15.00;99.90;;;;;;5082788;28;20541;-82
2022/10/19 00:28:36;;;;;;;12.93;8.10;;;15.00;99.90;;;;;;5083089;28;20473;-83
2022/10/19 00:31:05;;;;;;;11.40;8.97;;;15.00;64.10;;;;;;5086410;28;20906;-82
2022/10/19 00:33:33;;;;;;;10.07;9.07;;;14.80;99.90;;;;;;5083169;28;20445;-83
2022/10/19 00:36:02;;;;;;;12.10;8.60;;;14.80;1.00;;;;;;5083912;28;20443;-83
2022/10/19 00:38:30;;;;;;;10.30;9.30;;;14.80;1.00;;;;;;5083655;28;20477;-82
2022/10/19 00:41:00;;;;;;;10.77;9.23;;;14.80;1.00;;;;;;5081374;28;20474;-83
2022/10/19 00:43:30;;;;;;;11.80;8.70;;;14.80;1.00;;;;;;5089815;28;20462;-83
2022/10/19 00:45:59;;;;;;;9.97;9.07;;;14.80;1.00;;;;;;5089934;28;20440;-84
2022/10/19 00:48:30;;;;;;;10.87;9.83;;;14.80;99.90;;;;;;5085977;28;20532;-84
2022/10/19 00:51:00;;;;;;;12.17;10.30;;;14.80;99.90;;;;;;5084715;28;20458;-83
2022/10/19 00:53:30;;;;;;;15.57;11.60;;;14.80;99.90;;;;;;5081425;28;20447;-83
2022/10/19 00:56:05;;;;;;;12.87;10.73;;;14.70;99.90;;;;;;5087804;28;20448;-84
2022/10/19 00:58:33;;;;;;;24.13;12.17;;;14.80;1.00;;;;;;5083255;28;21234;-83
2022/10/19 01:01:04;;;;;;;13.40;11.60;;;14.80;99.90;;;;;;5084658;28;20499;-85
2022/10/19 01:03:33;;;;;;;12.83;11.33;;;14.80;1.00;;;;;;5086999;28;21384;-83
2022/10/19 01:06:01;;;;;;;13.63;12.30;;;14.80;99.90;;;;;;5083101;28;20553;-86
2022/10/19 01:08:30;;;;;;;13.00;10.70;;;14.90;99.90;;;;;;5081706;28;20447;-84
2022/10/19 01:11:14;;;;;;;14.07;10.20;;;14.80;99.90;;;;;;5081384;28;20488;-85
2022/10/19 01:13:52;;;;;;;12.10;10.03;;;14.70;99.90;;;;;;5083127;28;20456;-82
2022/10/19 01:16:29;;;;;;;12.67;10.47;;;14.60;1.00;;;;;;5074448;28;20506;-84
2022/10/19 01:19:05;;;;;;;12.70;10.40;;;14.60;1.00;;;;;;5079634;28;21007;-84
2022/10/19 01:21:38;;;;;;;12.60;10.63;;;14.50;1.00;;;;;;5088436;28;20491;-84
2022/10/19 01:24:28;;;;;;;12.50;11.20;;;14.60;99.90;;;;;;5084103;28;20536;-84
2022/10/19 01:27:26;;;;;;;12.63;11.20;;;14.60;1.00;;;;;;5081624;28;20460;-84
2022/10/19 01:30:02;;;;;;;13.60;11.17;;;14.60;1.00;;;;;;5085159;28;20496;-83
2022/10/19 01:32:41;;;;;;;14.30;10.20;;;14.60;1.00;;;;;;5083967;28;20448;-85
2022/10/19 01:35:17;;;;;;;12.30;9.80;;;14.50;93.20;;;;;;5088580;28;20582;-84
2022/10/19 01:37:50;;;;;;;13.70;9.77;;;14.50;99.90;;;;;;5084057;28;20476;-86
2022/10/19 01:40:24;;;;;;;13.80;9.83;;;14.60;1.00;;;;;;5081952;28;20490;-86
2022/10/19 01:42:59;;;;;;;11.40;9.50;;;14.50;99.90;;;;;;5086283;28;21028;-82
2022/10/19 01:45:35;;;;;;;14.30;9.60;;;14.50;99.90;;;;;;5088607;28;20550;-85
2022/10/19 01:48:09;;;;;;;18.47;10.60;;;14.40;97.90;;;;;;5082090;28;20467;-84
2022/10/19 01:50:43;;;;;;;24.17;12.17;;;14.60;1.00;;;;;;5088588;28;21014;-83
2022/10/19 01:53:13;;;;;;;11.40;10.27;;;14.70;99.90;;;;;;5088402;28;20453;-83
2022/10/19 01:55:44;;;;;;;12.27;10.97;;;14.80;99.90;;;;;;5086710;28;20449;-83
2022/10/19 01:58:17;;;;;;;14.70;10.00;;;14.70;99.90;;;;;;5089394;28;20903;-83
2022/10/19 02:00:50;;;;;;;11.57;10.37;;;14.70;99.90;;;;;;5088608;28;20477;-82
2022/10/19 02:03:20;;;;;;;14.40;10.20;;;14.70;99.90;;;;;;5083944;28;20463;-83
2022/10/19 02:05:49;;;;;;;13.03;9.90;;;14.60;99.90;;;;;;5085851;28;20808;-83
2022/10/19 02:08:23;;;;;;;12.43;10.30;;;14.70;99.90;;;;;;5089331;28;20456;-82
2022/10/19 02:10:52;;;;;;;13.90;10.23;;;14.70;99.90;;;;;;5085884;28;20891;-81
2022/10/19 02:13:21;;;;;;;11.10;9.10;;;14.70;99.90;;;;;;5085364;28;20553;-83
2022/10/19 02:15:54;;;;;;;12.40;10.00;;;14.60;99.90;;;;;;5085943;28;20467;-83
2022/10/19 02:18:28;;;;;;;10.83;9.73;;;14.50;99.90;;;;;;5084746;28;20547;-82
2022/10/19 02:20:57;;;;;;;18.47;9.67;;;14.60;99.90;;;;;;5086365;28;20481;-81
2022/10/19 02:23:27;;;;;;;12.50;10.47;;;14.70;99.90;;;;;;5086153;28;20548;-85
2022/10/19 02:25:56;;;;;;;11.60;10.17;;;14.70;99.90;;;;;;5086835;28;20442;-83
2022/10/19 02:28:25;;;;;;;16.67;11.90;;;14.80;1.00;;;;;;5086845;28;20448;-81
2022/10/19 02:30:55;;;;;;;18.70;11.90;;;14.80;1.00;;;;;;5088188;28;21153;-81
2022/10/19 02:33:23;;;;;;;23.93;14.63;;;14.90;1.00;;;;;;5084825;28;21064;-82
2022/10/19 02:35:51;;;;;;;19.13;13.80;;;15.00;1.00;;;;;;5084806;28;20479;-84
2022/10/19 02:38:22;;;;;;;20.07;13.03;;;15.10;8.00;;;;;;5085664;28;20569;-81
2022/10/19 02:40:59;;;;;;;16.00;12.43;;;15.20;15.80;;;;;;5083099;28;20506;-82
2022/10/19 02:43:28;;;;;;;21.67;13.90;;;15.20;28.50;;;;;;5088158;28;20469;-83
2022/10/19 02:46:02;;;;;;;20.13;15.03;;;15.30;26.60;;;;;;5090717;28;20429;-83
2022/10/19 02:48:33;;;;;;;22.50;15.87;;;15.30;1.00;;;;;;5088810;28;20512;-82
2022/10/19 02:51:01;;;;;;;24.20;14.70;;;15.30;1.00;;;;;;5085993;28;20474;-82
2022/10/19 02:53:29;;;;;;;21.70;15.17;;;15.10;1.00;;;;;;5083544;28;20481;-81
2022/10/19 02:55:57;;;;;;;20.13;13.33;;;15.10;1.00;;;;;;5091112;28;20497;-82
2022/10/19 02:58:25;;;;;;;24.40;15.57;;;15.10;1.00;;;;;;5091028;28;20589;-81
2022/10/19 03:00:53;;;;;;;30.50;16.90;;;15.10;1.00;;;;;;5093559;28;20534;-81
2022/10/19 03:03:22;;;;;;;25.63;17.37;;;15.10;1.00;;;;;;5091495;28;20487;-82
2022/10/19 03:05:51;;;;;;;28.70;16.73;;;15.10;1.00;;;;;;5086905;28;20545;-82
2022/10/19 03:08:19;;;;;;;29.83;17.17;;;15.10;1.00;;;;;;5086131;28;20525;-82
2022/10/19 03:10:47;;;;;;;31.73;18.10;;;15.10;1.00;;;;;;5087132;28;20484;-81
2022/10/19 03:13:15;;;;;;;31.97;19.37;;;15.00;1.00;;;;;;5084957;28;20446;-82
2022/10/19 03:15:43;;;;;;;30.77;17.90;;;15.00;3.90;;;;;;5084454;28;20514;-83
2022/10/19 03:18:11;;;;;;;29.33;18.73;;;15.10;1.00;;;;;;5084611;28;20840;-83
2022/10/19 03:20:40;;;;;;;27.17;18.57;;;15.10;1.00;;;;;;5092069;28;20468;-82
2022/10/19 03:23:08;;;;;;;24.90;18.77;;;15.10;1.00;;;;;;5081153;28;20461;-81
2022/10/19 03:25:36;;;;;;;30.10;19.33;;;15.20;1.00;;;;;;5083336;28;20493;-81
2022/10/19 03:28:06;;;;;;;28.30;19.90;;;15.10;1.00;;;;;;5082456;28;20458;-82
2022/10/19 03:30:34;;;;;;;33.03;20.07;;;15.20;1.00;;;;;;5089753;28;20515;-82
2022/10/19 03:33:02;;;;;;;26.60;19.07;;;15.20;1.00;;;;;;5084476;28;20450;-83
2022/10/19 03:35:30;;;;;;;30.23;20.20;;;15.20;1.00;;;;;;5079064;28;20455;-82
2022/10/19 03:37:59;;;;;;;24.37;18.23;;;15.20;1.00;;;;;;5073063;28;20542;-83
2022/10/19 03:40:27;;;;;;;23.53;18.73;;;15.30;1.00;;;;;;5084854;28;20492;-82
2022/10/19 03:42:56;;;;;;;22.00;17.30;;;15.30;1.00;;;;;;5082536;28;20831;-83
2022/10/19 03:45:24;;;;;;;23.07;17.67;;;15.30;1.00;;;;;;5078643;28;20478;-83
2022/10/19 03:47:52;;;;;;;22.00;17.30;;;15.40;1.00;;;;;;5098667;28;20547;-83
2022/10/19 03:50:20;;;;;;;25.23;18.90;;;15.40;1.00;;;;;;5079833;28;20930;-82
2022/10/19 03:52:48;;;;;;;26.77;20.50;;;15.40;1.00;;;;;;5086850;28;20483;-82
2022/10/19 03:55:18;;;;;;;33.10;23.60;;;15.30;1.00;;;;;;5087735;28;20542;-81
2022/10/19 03:57:46;;;;;;;29.03;19.10;;;15.40;1.00;;;;;;5079548;28;20526;-80
2022/10/19 04:00:15;;;;;;;27.20;19.83;;;15.40;1.00;;;;;;5075031;28;20996;-82
2022/10/19 04:02:43;;;;;;;33.47;20.67;;;15.40;1.00;;;;;;5083248;28;20479;-81
2022/10/19 04:05:11;;;;;;;27.07;19.60;;;15.40;1.00;;;;;;5087496;28;20504;-80
2022/10/19 04:07:39;;;;;;;28.87;19.57;;;15.40;1.00;;;;;;5081864;28;20481;-82
2022/10/19 04:10:08;;;;;;;28.87;21.13;;;15.40;1.00;;;;;;5081907;28;20463;-82
2022/10/19 04:12:37;;;;;;;32.43;20.60;;;15.40;1.00;;;;;;5081727;28;20512;-81
2022/10/19 04:15:06;;;;;;;28.37;20.70;;;15.50;1.00;;;;;;5081962;28;20483;-83
2022/10/19 04:17:35;;;;;;;28.43;21.10;;;15.50;1.00;;;;;;5085672;28;21032;-83
2022/10/19 04:20:05;;;;;;;26.50;20.67;;;15.50;1.00;;;;;;5082803;28;20490;-84
2022/10/19 04:22:33;;;;;;;26.93;19.90;;;15.50;1.00;;;;;;5083715;28;20458;-84
2022/10/19 04:25:01;;;;;;;29.17;21.43;;;15.50;1.00;;;;;;5083517;28;20469;-84
2022/10/19 04:27:29;;;;;;;29.80;22.03;;;15.40;1.00;;;;;;5087627;28;21585;-81
2022/10/19 04:29:58;;;;;;;36.33;22.97;;;15.40;1.00;;;;;;5085845;28;20495;-82
2022/10/19 04:32:26;;;;;;;31.03;22.03;;;15.40;1.00;;;;;;5074769;28;20488;-81
2022/10/19 04:34:55;;;;;;;37.83;23.07;;;15.40;1.00;;;;;;5083432;28;20564;-80
2022/10/19 04:37:23;;;;;;;36.20;23.97;;;15.40;1.00;;;;;;5085252;28;20462;-79
2022/10/19 04:39:51;;;;;;;31.73;23.83;;;15.40;1.00;;;;;;5077400;28;20623;-81
2022/10/19 04:42:19;;;;;;;34.00;21.97;;;15.40;1.00;;;;;;5084476;28;20489;-82
2022/10/19 04:44:47;;;;;;;36.00;22.00;;;15.50;1.00;;;;;;5084858;28;20915;-81
2022/10/19 04:47:16;;;;;;;36.80;23.30;;;15.40;1.00;;;;;;5083097;28;20972;-81
2022/10/19 04:49:44;;;;;;;35.70;21.90;;;15.50;1.00;;;;;;5083644;28;20901;-82
2022/10/19 04:52:12;;;;;;;33.87;22.60;;;15.50;1.00;;;;;;5087873;28;20460;-82
2022/10/19 04:54:40;;;;;;;32.53;20.37;;;15.50;1.00;;;;;;5080333;28;20541;-81
2022/10/19 04:57:08;;;;;;;30.63;20.60;;;15.50;1.00;;;;;;5087382;28;20545;-81
2022/10/19 04:59:36;;;;;;;30.83;22.47;;;15.50;1.00;;;;;;5086760;28;20568;-82
2022/10/19 05:02:04;;;;;;;31.63;21.07;;;15.40;1.00;;;;;;5079982;28;20491;-81
2022/10/19 05:04:34;;;;;;;27.30;21.23;;;15.40;1.00;;;;;;5080815;28;20465;-80
2022/10/19 05:07:02;;;;;;;31.47;22.20;;;15.40;1.00;;;;;;5084017;28;20454;-82
2022/10/19 05:09:30;;;;;;;28.03;20.60;;;15.50;1.00;;;;;;5079872;28;20512;-82
2022/10/19 05:11:58;;;;;;;35.40;22.20;;;15.50;1.00;;;;;;5076561;28;20564;-79
2022/10/19 05:14:26;;;;;;;27.93;21.30;;;15.40;1.00;;;;;;5078770;28;21045;-80
2022/10/19 05:16:55;;;;;;;30.93;21.77;;;15.40;1.00;;;;;;5077408;28;20463;-79
2022/10/19 05:19:23;;;;;;;31.97;21.77;;;15.40;1.00;;;;;;5081023;28;20551;-82
2022/10/19 05:21:52;;;;;;;36.40;22.30;;;15.40;1.00;;;;;;5083130;28;20457;-82
2022/10/19 05:24:20;;;;;;;29.07;22.50;;;15.50;1.00;;;;;;5078906;28;20736;-81
2022/10/19 05:26:48;;;;;;;37.20;23.07;;;15.40;1.00;;;;;;5082809;28;20454;-81
2022/10/19 05:29:16;;;;;;;32.67;23.50;;;15.50;1.00;;;;;;5085712;28;20490;-82
2022/10/19 05:31:44;;;;;;;36.67;23.37;;;15.50;1.00;;;;;;5081420;28;20456;-81
2022/10/19 05:34:12;;;;;;;30.47;20.87;;;15.40;1.00;;;;;;5088496;28;20511;-82
2022/10/19 05:36:40;;;;;;;34.33;22.90;;;15.40;1.00;;;;;;5088921;28;20502;-81
2022/10/19 05:39:13;;;;;;;35.30;24.00;;;15.50;1.00;;;;;;5083721;28;20461;-82
2022/10/19 05:41:43;;;;;;;31.93;22.73;;;15.50;1.00;;;;;;5084132;28;20472;-83
2022/10/19 05:44:14;;;;;;;32.20;22.63;;;15.50;1.00;;;;;;5083990;28;20450;-82
2022/10/19 05:46:42;;;;;;;32.70;23.67;;;15.40;1.00;;;;;;5083681;28;20539;-82
2022/10/19 05:49:12;;;;;;;37.43;23.67;;;15.40;1.00;;;;;;5100414;28;20457;-82
2022/10/19 05:51:40;;;;;;;33.20;23.97;;;15.40;1.00;;;;;;5079670;28;20497;-82
2022/10/19 05:54:10;;;;;;;39.13;23.70;;;15.50;1.00;;;;;;5087410;28;20519;-80
2022/10/19 05:56:40;;;;;;;32.93;23.77;;;15.50;1.00;;;;;;5082617;28;20974;-82
2022/10/19 05:59:10;;;;;;;37.70;23.87;;;15.50;1.00;;;;;;5080795;28;20481;-82
2022/10/19 06:01:38;;;;;;;32.80;23.40;;;15.50;1.00;;;;;;5079625;28;20479;-82
2022/10/19 06:04:06;;;;;;;30.00;22.83;;;15.60;1.00;;;;;;5081372;28;20461;-82
2022/10/19 06:06:35;;;;;;;34.60;23.83;;;15.50;1.00;;;;;;5082947;28;21148;-81
2022/10/19 06:09:03;;;;;;;35.63;24.27;;;15.50;3.00;;;;;;5089186;28;20518;-82
2022/10/19 06:11:35;;;;;;;30.97;22.67;;;15.60;5.20;;;;;;5086157;28;20483;-82
2022/10/19 06:14:05;;;;;;;22.50;19.47;;;15.60;5.20;;;;;;5085246;28;20452;-83
2022/10/19 06:16:34;;;;;;;26.43;22.70;;;15.70;21.70;;;;;;5087151;28;20489;-82
2022/10/19 06:19:02;;;;;;;25.97;22.40;;;15.70;21.00;;;;;;5081696;28;20453;-83
2022/10/19 06:21:31;;;;;;;22.40;20.10;;;15.80;20.50;;;;;;5086658;28;20476;-83
2022/10/19 06:24:01;;;;;;;22.50;20.10;;;15.90;20.50;;;;;;5086466;28;20463;-82
2022/10/19 06:26:32;;;;;;;20.67;18.87;;;15.90;20.60;;;;;;5086799;28;20443;-83
2022/10/19 06:29:01;;;;;;;21.20;19.20;;;15.90;23.20;;;;;;5086127;28;20972;-83
2022/10/19 06:31:31;;;;;;;22.17;19.93;;;16.00;13.40;;;;;;5085394;28;20470;-82
2022/10/19 06:33:59;;;;;;;22.27;19.37;;;15.90;15.30;;;;;;5079764;28;20465;-82
2022/10/19 06:36:29;;;;;;;24.13;21.03;;;15.90;17.90;;;;;;5082013;28;20777;-82
2022/10/19 06:38:58;;;;;;;23.00;20.57;;;15.90;14.60;;;;;;5090285;28;20457;-82
2022/10/19 06:41:26;;;;;;;22.27;20.07;;;16.00;24.70;;;;;;5087444;28;20466;-82
2022/10/19 06:43:56;;;;;;;24.70;22.10;;;16.00;24.00;;;;;;5090125;28;20453;-82
2022/10/19 06:46:26;;;;;;;41.87;24.70;;;16.00;15.10;;;;;;5094502;28;20455;-82
2022/10/19 06:48:56;;;;;;;46.07;24.67;;;16.00;22.90;;;;;;5092252;28;20444;-82
2022/10/19 06:51:25;;;;;;;28.67;24.20;;;16.00;24.40;;;;;;5087604;28;21057;-84
2022/10/19 06:53:53;;;;;;;26.13;23.70;;;15.90;27.80;;;;;;5090379;28;20547;-83
2022/10/19 06:56:25;;;;;;;28.30;23.90;;;15.80;33.90;;;;;;5089841;28;20461;-82
2022/10/19 06:58:53;;;;;;;26.53;23.73;;;15.90;35.60;;;;;;5090663;28;20442;-82
2022/10/19 07:01:24;;;;;;;25.43;23.03;;;15.80;37.50;;;;;;5091344;28;20477;-83
2022/10/19 07:03:52;;;;;;;25.83;23.40;;;15.90;14.00;;;;;;5094149;28;20453;-82
2022/10/19 07:06:21;;;;;;;26.57;24.07;;;15.90;1.00;;;;;;5093367;28;20477;-82
2022/10/19 07:08:49;;;;;;;26.37;23.97;;;15.90;1.00;;;;;;5087576;28;20547;-83
2022/10/19 07:11:21;;;;;;;25.43;23.03;;;15.80;1.00;;;;;;5087181;28;20833;-83
2022/10/19 07:13:49;;;;;;;25.20;22.90;;;15.70;1.00;;;;;;5086562;28;20454;-82
2022/10/19 07:16:18;;;;;;;24.30;22.00;;;15.80;7.70;;;;;;5086353;28;20507;-82
2022/10/19 07:18:51;;;;;;;25.30;22.80;;;15.80;1.00;;;;;;5085185;28;20451;-82
2022/10/19 07:21:21;;;;;;;23.17;21.07;;;15.80;1.00;;;;;;5083902;28;20578;-82
2022/10/19 07:23:50;;;;;;;23.73;21.63;;;15.90;1.00;;;;;;5089506;28;20533;-83
2022/10/19 07:26:22;;;;;;;24.60;22.27;;;15.90;1.00;;;;;;5091595;28;20968;-82
2022/10/19 07:28:51;;;;;;;22.20;20.10;;;16.00;1.00;;;;;;5085176;28;20541;-82
2022/10/19 07:31:20;;;;;;;22.67;20.70;;;16.00;1.00;;;;;;5089113;28;20491;-82
2022/10/19 07:33:53;;;;;;;22.40;20.50;;;16.00;1.00;;;;;;5089955;28;20516;-83
2022/10/19 07:36:21;;;;;;;23.23;21.40;;;15.90;1.00;;;;;;5086969;28;20507;-82
2022/10/19 07:38:49;;;;;;;22.80;21.00;;;16.10;1.00;;;;;;5086366;28;20497;-83
2022/10/19 07:41:20;;;;;;;23.57;21.60;;;16.00;1.00;;;;;;5087119;28;20489;-83
2022/10/19 07:43:48;;;;;;;22.37;20.47;;;15.90;1.00;;;;;;5086324;28;20490;-83
2022/10/19 07:46:18;;;;;;;24.53;22.57;;;15.90;1.00;;;;;;5087658;28;20476;-83
2022/10/19 07:48:47;;;;;;;19.63;18.33;;;16.00;1.00;;;;;;5085335;28;21001;-83
2022/10/19 07:51:18;;;;;;;19.83;18.23;;;16.00;1.00;;;;;;5085140;28;20548;-82
2022/10/19 07:53:46;;;;;;;19.20;17.80;;;16.00;1.00;;;;;;5085496;28;20463;-83
2022/10/19 07:56:17;;;;;;;18.50;17.20;;;15.90;1.00;;;;;;5089339;28;20956;-81
2022/10/19 07:58:45;;;;;;;18.37;16.90;;;15.90;1.00;;;;;;5086611;28;20482;-84
2022/10/19 08:01:15;;;;;;;18.47;16.90;;;15.90;1.00;;;;;;5084083;28;22049;-82
2022/10/19 08:03:44;;;;;;;17.60;16.30;;;15.90;1.00;;;;;;5086355;28;20560;-82
2022/10/19 08:06:33;;;;;;;17.97;16.60;;;15.80;1.00;;;;;;5087259;28;20541;-82
2022/10/19 08:09:02;;;;;;;17.87;16.57;;;15.90;1.00;;;;;;5085397;28;20461;-83
2022/10/19 08:11:32;;;;;;;18.23;16.83;;;15.80;1.00;;;;;;5087799;28;20484;-84
2022/10/19 08:14:15;;;;;;;19.73;18.00;;;15.80;1.00;;;;;;5083313;28;20451;-82
2022/10/19 08:16:43;;;;;;;17.77;16.60;;;15.90;1.00;;;;;;5083274;28;20512;-82
2022/10/19 08:19:13;;;;;;;17.97;16.57;;;15.80;1.00;;;;;;5079556;28;20478;-84
2022/10/19 08:21:44;;;;;;;18.97;17.47;;;15.90;1.00;;;;;;5084516;28;20529;-82
2022/10/19 08:24:15;;;;;;;16.83;15.67;;;16.00;1.00;;;;;;5085869;28;20482;-81
2022/10/19 08:26:43;;;;;;;18.30;16.90;;;16.00;1.00;;;;;;5082919;28;20463;-81
2022/10/19 08:29:14;;;;;;;17.93;16.53;;;15.90;1.00;;;;;;5086706;28;20934;-86
2022/10/19 08:31:44;;;;;;;18.90;17.30;;;16.00;1.00;;;;;;5084806;28;20446;-83
2022/10/19 08:34:13;;;;;;;18.63;16.83;;;16.00;1.00;;;;;;5103191;28;20462;-82
2022/10/19 08:36:43;;;;;;;18.07;16.57;;;16.00;1.00;;;;;;5087474;28;20459;-83
2022/10/19 08:39:12;;;;;;;18.50;17.10;;;16.00;1.00;;;;;;5084157;28;20816;-85
2022/10/19 08:41:55;;;;;;;27.20;18.33;;;16.00;1.00;;;;;;5088948;28;20570;-82
2022/10/19 08:44:58;;;;;;;19.20;17.60;;;16.10;1.00;;;;;;5088929;28;20485;-82
2022/10/19 08:47:41;;;;;;;18.20;16.60;;;16.20;1.00;;;;;;5036006;28;20493;-82
2022/10/19 08:50:18;;;;;;;20.40;18.80;;;16.20;1.00;;;;;;5100205;28;20949;-82
2022/10/19 08:52:52;;;;;;;18.07;16.83;;;16.10;1.00;;;;;;5086944;28;20455;-82
2022/10/19 08:55:28;;;;;;;18.43;17.00;;;16.20;1.00;;;;;;5087804;28;20470;-82
2022/10/19 08:58:07;;;;;;;18.00;16.70;;;16.20;1.00;;;;;;5086874;28;20553;-82
2022/10/19 09:00:43;;;;;;;20.30;18.80;;;16.20;1.00;;;;;;5081737;28;21359;-84
2022/10/19 09:03:22;;;;;;;19.37;17.97;;;16.20;1.00;;;;;;5081808;28;21027;-82
2022/10/19 09:06:21;;;;;;;21.33;19.83;;;16.10;1.00;;;;;;5087685;28;21066;-83
2022/10/19 09:08:55;;;;;;;18.80;17.23;;;16.20;1.00;;;;;;5084717;28;20512;-82
2022/10/19 09:11:27;;;;;;;19.47;17.80;;;16.10;1.00;;;;;;5086043;28;20558;-82
2022/10/19 09:14:00;;;;;;;17.50;16.20;;;16.10;1.00;;;;;;5087576;28;20447;-82
2022/10/19 09:16:34;;;;;;;17.10;15.90;;;16.10;1.00;;;;;;5085341;28;21278;-83
2022/10/19 09:19:03;;;;;;;20.57;18.97;;;16.20;1.00;;;;;;5083446;28;20464;-82
2022/10/19 09:21:40;;;;;;;18.30;16.83;;;16.30;1.00;;;;;;5085095;28;20488;-82
2022/10/19 09:24:28;;;;;;;18.63;17.00;;;16.20;1.00;;;;;;5087375;28;20982;-81
2022/10/19 09:26:58;;;;;;;19.43;17.73;;;16.20;1.00;;;;;;5086423;28;20520;-82
2022/10/19 09:29:35;;;;;;;17.23;15.83;;;16.20;1.00;;;;;;5081889;28;20455;-82
2022/10/19 09:32:11;;;;;;;19.80;18.30;;;16.20;1.00;;;;;;5083988;28;20464;-82
2022/10/19 09:34:44;;;;;;;18.50;17.00;;;16.10;1.00;;;;;;5085273;28;20494;-83
2022/10/19 09:37:12;;;;;;;17.13;15.80;;;16.20;1.00;;;;;;5084990;28;20454;-84
2022/10/19 09:39:53;;;;;;;19.03;17.63;;;16.10;99.90;;;;;;5084854;28;20494;-83
2022/10/19 09:42:27;;;;;;;17.87;16.43;;;16.00;1.00;;;;;;5086252;28;20514;-82
2022/10/19 09:44:58;;;;;;;18.60;16.90;;;16.00;1.00;;;;;;5085367;28;20553;-83
2022/10/19 09:47:34;;;;;;;18.07;16.67;;;16.20;1.00;;;;;;5089717;28;20456;-83
2022/10/19 09:50:17;;;;;;;18.47;16.97;;;16.20;1.00;;;;;;5085486;28;20481;-82
2022/10/19 09:52:46;;;;;;;22.33;20.63;;;16.20;1.00;;;;;;5085451;28;20459;-85
2022/10/19 09:55:28;;;;;;;20.37;18.77;;;16.20;1.00;;;;;;5084638;28;20490;-81
2022/10/19 09:58:02;;;;;;;19.23;17.80;;;16.20;1.00;;;;;;5088331;28;20467;-83
2022/10/19 10:00:38;;;;;;;20.33;18.57;;;16.20;1.00;;;;;;5086343;28;20519;-83
2022/10/19 10:03:07;;;;;;;20.73;19.20;;;16.30;1.00;;;;;;5089808;28;20462;-84
2022/10/19 10:05:37;;;;;;;18.60;17.30;;;16.30;1.00;;;;;;5090550;28;20486;-82
2022/10/19 10:08:13;;;;;;;19.53;18.13;;;16.30;1.00;;;;;;5083985;28;20457;-82
2022/10/19 10:10:47;;;;;;;20.43;19.00;;;16.30;99.90;;;;;;5080672;28;20474;-83
2022/10/19 10:13:19;;;;;;;28.77;26.17;;;16.20;1.00;;;;;;5088603;28;20442;-83
2022/10/19 10:15:51;;;;;;;22.47;20.53;;;16.30;1.00;;;;;;5089274;28;20449;-85
2022/10/19 10:18:19;;;;;;;20.90;19.00;;;16.30;1.00;;;;;;5084367;28;21059;-84
2022/10/19 10:20:59;;;;;;;20.67;19.20;;;16.20;99.90;;;;;;5090359;28;20492;-84
2022/10/19 10:23:31;;;;;;;23.70;21.80;;;16.20;1.00;;;;;;5088619;28;21030;-85
2022/10/19 10:26:00;;;;;;;23.10;21.40;;;16.30;1.00;;;;;;5091420;28;20579;-81
2022/10/19 10:28:30;;;;;;;20.47;18.83;;;16.30;99.90;;;;;;5084770;28;20452;-81
2022/10/19 10:31:04;;;;;;;20.27;18.50;;;16.30;99.90;;;;;;5090139;28;20478;-83
2022/10/19 10:33:35;;;;;;;21.10;19.40;;;16.30;1.00;;;;;;5098165;28;20445;-82
2022/10/19 10:36:27;;;;;;;18.93;17.63;;;16.30;1.00;;;;;;5091347;28;20485;-83
2022/10/19 10:39:03;;;;;;;19.53;18.20;;;16.30;99.90;;;;;;5093390;28;20831;-83
2022/10/19 10:41:38;;;;;;;19.23;17.70;;;16.30;1.00;;;;;;5086087;28;20456;-83
2022/10/19 10:44:15;;;;;;;19.77;18.17;;;16.30;99.90;;;;;;5077089;28;21524;-84
2022/10/19 10:46:52;;;;;;;18.73;17.23;;;16.20;99.90;;;;;;5088449;28;21027;-83
2022/10/19 10:49:24;;;;;;;17.33;16.13;;;16.30;99.90;;;;;;5093348;28;20541;-83
2022/10/19 10:51:55;;;;;;;18.03;16.83;;;16.30;99.90;;;;;;5094610;28;20481;-83
2022/10/19 10:54:26;;;;;;;16.43;15.33;;;16.30;99.90;;;;;;5094684;28;20478;-82
2022/10/19 10:57:11;;;;;;;15.90;15.00;;;16.30;99.90;;;;;;5094771;28;20455;-83
2022/10/19 10:59:49;;;;;;;16.73;15.03;;;16.30;99.90;;;;;;5094266;28;20470;-82
2022/10/19 11:02:31;;;;;;;15.50;14.60;;;16.40;99.90;;;;;;5094344;28;20456;-82
2022/10/19 11:05:04;;;;;;;13.73;13.00;;;16.40;99.90;;;;;;5093451;28;20445;-83
2022/10/19 11:07:34;;;;;;;12.10;11.47;;;16.40;75.60;;;;;;5090757;28;20502;-81
2022/10/19 11:10:12;;;;;;;11.70;11.20;;;16.30;1.00;;;;;;5087432;28;20538;-83
2022/10/19 11:12:46;;;;;;;12.23;11.60;;;16.30;18.10;;;;;;5089654;28;20443;-82
2022/10/19 11:15:22;;;;;;;10.93;10.33;;;16.40;99.90;;;;;;5093569;28;20529;-82
2022/10/19 11:18:05;;;;;;;10.97;10.57;;;16.50;99.90;;;;;;5087031;28;20539;-82
2022/10/19 11:20:35;;;;;;;11.10;10.70;;;16.60;36.80;;;;;;5092277;28;22625;-83
2022/10/19 11:23:12;;;;;;;12.03;11.60;;;16.70;99.90;;;;;;5093084;28;20493;-83
2022/10/19 11:25:53;;;;;;;12.80;12.20;;;16.60;1.00;;;;;;5079062;28;20528;-83
2022/10/19 11:28:48;;;;;;;11.60;11.10;;;16.60;99.90;;;;;;5088935;28;20495;-83
2022/10/19 11:31:20;;;;;;;11.83;11.33;;;16.60;99.90;;;;;;5087851;28;20471;-83
2022/10/19 11:34:00;;;;;;;11.40;11.00;;;16.70;42.90;;;;;;5093354;28;20478;-83
2022/10/19 11:36:42;;;;;;;10.63;10.23;;;16.80;99.90;;;;;;5082774;28;20464;-83
2022/10/19 11:39:30;;;;;;;10.90;10.40;;;16.90;99.90;;;;;;5086247;28;20502;-83
2022/10/19 11:42:07;;;;;;;10.10;9.70;;;16.80;99.90;;;;;;5090037;28;20453;-81
2022/10/19 11:44:50;;;;;;;10.73;10.33;;;16.80;1.00;;;;;;5092894;28;20520;-83
2022/10/19 11:47:38;;;;;;;11.33;10.90;;;16.80;99.90;;;;;;5089258;28;20497;-83
2022/10/19 11:50:21;;;;;;;11.80;11.30;;;16.80;99.90;;;;;;5084549;28;20471;-83
2022/10/19 11:52:59;;;;;;;11.50;10.90;;;16.90;1.00;;;;;;5078026;28;20514;-83
2022/10/19 11:55:36;;;;;;;11.00;10.60;;;17.00;99.90;;;;;;5087728;28;20447;-82
2022/10/19 11:58:17;;;;;;;11.43;11.03;;;16.90;7.30;;;;;;5092846;28;20466;-83
2022/10/19 12:00:53;;;;;;;12.23;11.60;;;17.00;99.90;;;;;;5081809;28;20950;-84
2022/10/19 12:03:49;;;;;;;11.73;11.27;;;17.10;99.90;;;;;;5090673;28;20511;-83
2022/10/19 12:06:24;;;;;;;11.60;11.20;;;17.10;87.40;;;;;;5085637;28;20522;-84
2022/10/19 12:09:08;;;;;;;11.80;11.20;;;17.10;1.00;;;;;;5090629;28;20951;-85
2022/10/19 12:11:49;;;;;;;11.20;10.70;;;17.20;99.90;;;;;;5081752;28;21273;-83
2022/10/19 12:14:22;;;;;;;10.80;10.20;;;17.20;1.00;;;;;;5090130;28;20586;-84
2022/10/19 12:16:56;;;;;;;10.73;10.30;;;17.10;99.90;;;;;;5089595;28;20553;-83
2022/10/19 12:19:27;;;;;;;10.90;10.53;;;17.10;1.00;;;;;;5084248;28;20658;-81
2022/10/19 12:22:00;;;;;;;10.20;9.80;;;17.10;36.30;;;;;;5092150;28;20536;-82
2022/10/19 12:24:30;;;;;;;10.77;10.27;;;17.00;1.00;;;;;;5092955;28;20466;-82
2022/10/19 12:27:00;;;;;;;10.20;9.63;;;16.90;55.90;;;;;;5089454;28;20550;-82
2022/10/19 12:29:33;;;;;;;10.80;10.20;;;17.00;1.00;;;;;;5082813;28;20455;-81
2022/10/19 12:32:04;;;;;;;10.90;10.30;;;16.90;1.00;;;;;;5089728;28;20504;-83
2022/10/19 12:34:44;;;;;;;10.50;10.00;;;17.00;1.00;;;;;;5089595;28;20447;-83
2022/10/19 12:37:20;;;;;;;11.17;10.60;;;17.10;99.90;;;;;;5083378;28;21376;-83
2022/10/19 12:39:54;;;;;;;11.27;10.70;;;17.10;1.00;;;;;;5089621;28;20511;-83
2022/10/19 12:42:28;;;;;;;10.20;9.80;;;17.00;1.00;;;;;;5089937;28;20452;-82
2022/10/19 12:45:20;;;;;;;11.20;10.70;;;17.10;1.00;;;;;;5090284;28;20521;-83
2022/10/19 12:48:24;;;;;;;10.60;10.10;;;17.00;1.00;;;;;;5092249;28;20443;-83
2022/10/19 12:51:04;;;;;;;12.40;11.77;;;17.00;99.90;;;;;;5091276;28;20471;-85
2022/10/19 12:53:36;;;;;;;12.80;12.10;;;17.10;1.00;;;;;;5079608;28;20631;-83
2022/10/19 12:56:07;;;;;;;14.27;13.37;;;17.10;99.90;;;;;;5089800;28;20968;-85
2022/10/19 12:58:40;;;;;;;12.67;11.90;;;17.20;95.90;;;;;;5089924;28;20497;-85
2022/10/19 13:01:19;;;;;;;12.53;11.83;;;17.10;1.00;;;;;;5086891;28;20474;-82